Time;durP1;ratioP1;P1;durP2;ratioP2;P2;SDS_P1;SDS_P2;PMS_P1;PMS_P2;Temp;Humidity;BMP_temperature;BMP_pressure;BME280_temperature;BME280_humidity;BME280_pressure;Samples;Min_cycle;Max_cycle;Signal;HPM_P1;HPM_P2
2022/04/05 00:00:28;;;;;;;5.07;2.00;;;;;;;19.81;46.38;100461.38;5013888;28;20108;-53
2022/04/05 00:02:55;;;;;;;4.07;2.00;;;;;;;19.80;46.65;100458.88;5012837;28;20073;-54
2022/04/05 00:05:20;;;;;;;4.32;1.80;;;;;;;19.80;46.79;100464.16;5013789;28;20029;-52
2022/04/05 00:07:46;;;;;;;7.45;2.10;;;;;;;19.77;46.52;100462.63;5013637;28;20040;-55
2022/04/05 00:10:11;;;;;;;3.53;1.70;;;;;;;19.77;46.72;100465.25;5012627;28;20030;-51
2022/04/05 00:12:36;;;;;;;5.38;1.95;;;;;;;19.74;46.75;100463.72;5013610;28;20292;-54
2022/04/05 00:15:05;;;;;;;5.47;2.00;;;;;;;19.74;47.04;100470.81;5013257;28;20030;-54
2022/04/05 00:17:30;;;;;;;5.82;1.80;;;;;;;19.71;46.71;100460.50;5013662;28;20543;-51
2022/04/05 00:19:55;;;;;;;4.73;1.93;;;;;;;19.72;46.74;100465.66;5013314;28;20026;-54
2022/04/05 00:22:20;;;;;;;4.77;2.10;;;;;;;19.71;46.77;100463.16;5012782;28;20271;-53
2022/04/05 00:24:48;;;;;;;4.43;2.03;;;;;;;19.71;46.94;100471.94;5013332;28;20295;-54
2022/04/05 00:27:14;;;;;;;3.70;1.80;;;;;;;19.70;46.83;100470.25;5013553;28;20357;-54
2022/04/05 00:29:39;;;;;;;3.87;1.97;;;;;;;19.69;46.89;100473.06;5012818;28;20490;-54
2022/04/05 00:32:08;;;;;;;5.10;1.83;;;;;;;19.69;46.86;100476.56;5013111;28;20274;-53
2022/04/05 00:34:34;;;;;;;4.22;1.70;;;;;;;19.69;47.00;100470.41;5013261;28;20279;-54
2022/04/05 00:36:59;;;;;;;3.97;1.70;;;;;;;19.66;46.80;100474.19;5011890;28;20036;-51
2022/04/05 00:39:33;;;;;;;3.90;1.83;;;;;;;19.66;46.96;100470.69;5013470;28;20354;-54
2022/04/05 00:41:58;;;;;;;5.50;1.85;;;;;;;19.63;47.21;100463.91;5013242;28;20029;-54
2022/04/05 00:44:24;;;;;;;3.88;1.73;;;;;;;19.63;46.98;100474.47;5012932;28;20096;-52
2022/04/05 00:46:52;;;;;;;5.22;1.85;;;;;;;19.61;47.15;100465.84;5013028;28;20481;-53
2022/04/05 00:49:27;;;;;;;5.13;1.90;;;;;;;19.61;46.84;100467.66;5013150;28;20029;-54
2022/04/05 00:51:55;;;;;;;3.80;1.70;;;;;;;19.60;46.92;100465.97;5011954;28;20033;-54
2022/04/05 00:54:25;;;;;;;4.80;1.75;;;;;;;19.59;47.40;100470.44;5013086;28;20033;-52
2022/04/05 00:56:52;;;;;;;3.72;1.70;;;;;;;19.58;47.03;100468.75;5012945;28;20030;-55
2022/04/05 00:59:18;;;;;;;5.13;1.85;;;;;;;19.57;46.97;100475.03;5012309;28;20034;-53
2022/04/05 01:01:45;;;;;;;4.57;1.90;;;;;;;19.56;47.34;100463.63;5013027;28;20030;-53
2022/04/05 01:04:15;;;;;;;6.00;2.22;;;;;;;19.55;47.11;100467.25;5012652;28;20432;-55
2022/04/05 01:06:44;;;;;;;5.03;1.90;;;;;;;19.54;47.33;100464.75;5012513;28;20037;-52
2022/04/05 01:09:10;;;;;;;4.22;1.77;;;;;;;19.55;47.25;100471.69;5012782;28;20040;-55
2022/04/05 01:11:36;;;;;;;5.40;1.67;;;;;;;19.55;47.20;100475.19;5012015;28;20128;-54
2022/04/05 01:14:01;;;;;;;4.07;1.60;;;;;;;19.57;47.62;100475.88;5012578;28;20034;-54
2022/04/05 01:16:27;;;;;;;4.45;1.67;;;;;;;19.61;47.53;100473.75;5012848;28;20041;-55
2022/04/05 01:18:52;;;;;;;4.18;1.70;;;;;;;19.63;47.53;100470.97;5011828;28;20045;-54
2022/04/05 01:21:18;;;;;;;3.70;1.58;;;;;;;19.66;47.33;100470.69;5013030;28;20034;-53
2022/04/05 01:24:22;;;;;;;4.38;1.55;;;;;;;19.70;47.38;100482.66;5013025;28;20026;-53
2022/04/05 01:26:52;;;;;;;4.95;1.98;;;;;;;19.72;47.39;100483.34;5029779;28;20041;-53
2022/04/05 01:29:19;;;;;;;4.97;1.60;;;;;;;19.74;47.31;100482.25;5030710;28;20076;-53
2022/04/05 01:31:47;;;;;;;3.83;1.70;;;;;;;19.76;47.58;100482.13;5021448;28;20049;-56
2022/04/05 01:34:14;;;;;;;5.60;1.80;;;;;;;19.77;47.32;100481.13;5011676;28;20050;-53
2022/04/05 01:36:50;;;;;;;5.15;1.63;;;;;;;19.78;47.30;100484.63;5012737;28;20449;-54
2022/04/05 01:39:18;;;;;;;3.80;1.50;;;;;;;19.79;47.19;100481.84;5012654;28;20018;-54
2022/04/05 01:41:44;;;;;;;6.03;1.90;;;;;;;19.80;47.28;100488.78;5011708;28;20473;-55
2022/04/05 01:44:13;;;;;;;4.85;1.40;;;;;;;19.80;47.06;100483.47;5012067;28;20084;-54
2022/04/05 01:46:39;;;;;;;5.10;1.45;;;;;;;19.80;47.37;100478.19;5012042;28;20052;-54
2022/04/05 01:49:09;;;;;;;3.70;1.60;;;;;;;19.80;47.22;100486.13;5015753;28;20470;-54
2022/04/05 01:51:37;;;;;;;4.90;1.70;;;;;;;19.80;47.19;100480.84;5016617;28;20485;-54
2022/04/05 01:54:07;;;;;;;5.20;1.60;;;;;;;19.79;47.06;100475.69;5015209;28;20037;-52
2022/04/05 01:56:33;;;;;;;5.10;1.70;;;;;;;19.80;47.20;100483.47;5016118;28;20026;-54
2022/04/05 01:58:59;;;;;;;3.67;1.60;;;;;;;19.80;46.99;100483.47;5015847;28;20018;-53
2022/04/05 02:01:25;;;;;;;4.78;1.60;;;;;;;19.80;47.07;100477.38;5015566;28;20026;-51
2022/04/05 02:03:50;;;;;;;4.40;1.70;;;;;;;19.79;47.17;100484.47;5015866;28;20444;-52
2022/04/05 02:06:15;;;;;;;4.13;1.70;;;;;;;19.79;46.95;100484.47;5016054;28;20037;-54
2022/04/05 02:08:43;;;;;;;5.35;1.67;;;;;;;19.76;47.08;100479.47;5015233;28;20026;-52
2022/04/05 02:11:08;;;;;;;3.05;1.30;;;;;;;19.78;47.26;100487.28;5015565;28;20405;-50
2022/04/05 02:13:34;;;;;;;4.28;1.58;;;;;;;19.77;47.21;100480.31;5015775;28;20049;-50
2022/04/05 02:16:03;;;;;;;4.15;1.55;;;;;;;19.77;47.09;100482.94;5014772;28;20048;-54
2022/04/05 02:18:28;;;;;;;3.70;1.40;;;;;;;19.74;47.02;100484.03;5015941;28;20022;-52
2022/04/05 02:20:55;;;;;;;5.25;1.60;;;;;;;19.74;47.17;100482.25;5015562;28;20033;-51
2022/04/05 02:23:20;;;;;;;5.75;1.60;;;;;;;19.74;47.24;100489.31;5015009;28;20022;-51
2022/04/05 02:25:45;;;;;;;5.15;1.30;;;;;;;19.75;47.42;100486.53;5015895;28;20034;-53
2022/04/05 02:28:11;;;;;;;4.50;1.65;;;;;;;19.76;47.35;100487.41;5015590;28;20029;-50
2022/04/05 02:30:39;;;;;;;3.75;1.40;;;;;;;19.77;47.37;100482.94;5015011;28;20028;-50
2022/04/05 02:33:07;;;;;;;5.03;1.70;;;;;;;19.77;47.34;100485.59;5015214;28;20041;-52
2022/04/05 02:35:33;;;;;;;4.93;1.60;;;;;;;19.78;47.34;100488.09;5015665;28;20029;-51
2022/04/05 02:38:02;;;;;;;4.18;1.48;;;;;;;19.81;47.41;100489.63;5014841;28;20026;-53
2022/04/05 02:40:27;;;;;;;6.25;1.65;;;;;;;19.80;47.55;100491.41;5015357;28;20351;-53
2022/04/05 02:42:56;;;;;;;4.88;1.38;;;;;;;19.80;47.42;100491.41;5014415;28;20037;-52
2022/04/05 02:45:21;;;;;;;5.85;2.13;;;;;;;19.81;47.41;100484.34;5015416;28;20036;-54
2022/04/05 02:47:47;;;;;;;4.90;1.70;;;;;;;19.81;47.20;100486.97;5015371;28;20378;-51
2022/04/05 02:50:17;;;;;;;3.72;1.30;;;;;;;19.82;47.50;100484.19;5014564;28;20034;-54
2022/04/05 02:52:42;;;;;;;3.78;1.30;;;;;;;19.81;47.33;100479.06;5015383;28;20444;-52
2022/04/05 02:55:08;;;;;;;3.73;1.40;;;;;;;19.81;47.38;100485.16;5014974;28;20033;-53
2022/04/05 02:57:38;;;;;;;4.82;1.50;;;;;;;19.81;47.46;100485.16;5014471;28;20837;-53
2022/04/05 03:00:05;;;;;;;4.82;1.45;;;;;;;19.80;47.39;100483.47;5014440;28;20029;-53
2022/04/05 03:02:30;;;;;;;3.83;1.42;;;;;;;19.79;47.27;100479.19;5015060;28;20100;-53
2022/04/05 03:04:56;;;;;;;6.90;2.53;;;;;;;19.80;47.34;100477.38;5013852;28;20069;-53
2022/04/05 03:07:21;;;;;;;4.57;1.30;;;;;;;19.79;47.34;100480.97;5015157;28;20025;-54
2022/04/05 03:09:46;;;;;;;3.97;1.60;;;;;;;19.78;47.56;100487.28;5015022;28;20029;-53
2022/04/05 03:12:11;;;;;;;3.07;1.20;;;;;;;19.76;47.22;100471.56;5013585;28;20299;-53
2022/04/05 03:14:39;;;;;;;4.65;1.40;;;;;;;19.75;47.25;100478.59;5014689;28;20271;-54
2022/04/05 03:17:04;;;;;;;3.88;1.30;;;;;;;19.77;47.43;100488.22;5014388;28;20037;-52
2022/04/05 03:19:29;;;;;;;4.72;1.67;;;;;;;19.76;47.47;100487.41;5013965;28;20041;-54
2022/04/05 03:21:55;;;;;;;6.43;1.70;;;;;;;19.77;47.85;100486.41;5014826;28;20042;-54
2022/04/05 03:24:20;;;;;;;3.75;1.27;;;;;;;19.78;47.42;100481.97;5014760;28;20286;-53
2022/04/05 03:26:48;;;;;;;3.73;1.43;;;;;;;19.77;47.46;100483.78;5013845;28;20080;-54
2022/04/05 03:29:13;;;;;;;3.00;1.30;;;;;;;19.79;47.21;100489.78;5014513;28;20275;-53
2022/04/05 03:31:39;;;;;;;3.50;1.17;;;;;;;19.80;47.39;100486.13;5014421;28;20022;-53
2022/04/05 03:34:07;;;;;;;4.53;1.97;;;;;;;19.81;47.24;100485.16;5013219;28;20533;-53
2022/04/05 03:36:32;;;;;;;5.65;1.60;;;;;;;19.82;47.26;100481.56;5014503;28;20287;-54
2022/04/05 03:39:01;;;;;;;4.45;1.60;;;;;;;19.82;47.50;100484.19;5013996;28;20022;-55
2022/04/05 03:41:26;;;;;;;5.20;1.70;;;;;;;19.83;47.59;100482.38;5014200;28;20030;-54
2022/04/05 03:43:51;;;;;;;3.67;1.47;;;;;;;19.83;47.53;100477.09;5013998;28;20120;-53
2022/04/05 03:46:17;;;;;;;4.70;1.77;;;;;;;19.83;47.19;100477.91;5013304;28;20278;-51
2022/04/05 03:48:42;;;;;;;4.00;1.40;;;;;;;19.82;47.47;100481.56;5014009;28;20271;-54
2022/04/05 03:51:09;;;;;;;3.70;1.38;;;;;;;19.83;47.19;100479.72;5014043;28;20340;-53
2022/04/05 03:53:35;;;;;;;2.88;1.23;;;;;;;19.82;47.25;100478.91;5013521;28;20022;-54
2022/04/05 03:56:01;;;;;;;4.57;1.50;;;;;;;19.83;47.46;100482.38;5013695;28;20033;-54
2022/04/05 03:58:27;;;;;;;5.43;1.83;;;;;;;19.82;47.42;100484.19;5014194;28;20548;-54
2022/04/05 04:00:53;;;;;;;3.38;1.23;;;;;;;19.82;47.44;100480.69;5012935;28;20465;-53
2022/04/05 04:03:22;;;;;;;5.30;1.58;;;;;;;19.81;47.42;100481.69;5013373;28;20065;-54
2022/04/05 04:05:47;;;;;;;5.43;1.45;;;;;;;19.80;47.44;100477.38;5014106;28;20025;-54
2022/04/05 04:08:12;;;;;;;5.67;1.80;;;;;;;19.79;47.38;100476.56;5012939;28;20030;-55
2022/04/05 04:10:37;;;;;;;3.80;1.60;;;;;;;19.77;47.35;100473.19;5013179;28;20315;-55
2022/04/05 04:13:03;;;;;;;5.60;1.53;;;;;;;19.77;47.56;100473.19;5013241;28;20046;-54
2022/04/05 04:15:30;;;;;;;4.90;1.60;;;;;;;19.77;47.22;100481.13;5012826;28;20291;-55
2022/04/05 04:17:58;;;;;;;2.83;1.15;;;;;;;19.77;47.54;100475.84;5013246;28;20481;-54
2022/04/05 04:20:24;;;;;;;3.65;1.30;;;;;;;19.79;47.46;100475.69;5013786;28;20441;-55
2022/04/05 04:22:49;;;;;;;4.05;1.38;;;;;;;19.79;47.27;100473.91;5012629;28;20057;-55
2022/04/05 04:25:14;;;;;;;3.72;1.60;;;;;;;19.81;47.55;100481.69;5013777;28;20040;-55
2022/04/05 04:27:39;;;;;;;4.45;1.50;;;;;;;19.81;47.26;100471.94;5013603;28;20028;-54
2022/04/05 04:30:05;;;;;;;4.97;1.33;;;;;;;19.81;47.20;100477.22;5012342;28;20076;-54
2022/04/05 04:32:33;;;;;;;3.90;1.45;;;;;;;19.81;47.65;100471.13;5013364;28;20297;-54
2022/04/05 04:35:01;;;;;;;5.22;1.50;;;;;;;19.81;47.60;100479.88;5012869;28;20504;-55
2022/04/05 04:37:27;;;;;;;5.60;1.70;;;;;;;19.79;47.53;100470.41;5012457;28;20405;-55
2022/04/05 04:39:52;;;;;;;4.40;1.77;;;;;;;19.81;47.45;100479.88;5013000;28;20026;-54
2022/04/05 04:42:18;;;;;;;3.50;1.38;;;;;;;19.80;47.47;100475.56;5013031;28;20026;-54
2022/04/05 04:44:43;;;;;;;4.95;1.40;;;;;;;19.81;47.39;100471.13;5012770;28;20395;-55
2022/04/05 04:47:08;;;;;;;5.22;1.50;;;;;;;19.81;47.34;100479.88;5012949;28;20388;-54
2022/04/05 04:49:37;;;;;;;4.63;1.60;;;;;;;19.80;47.22;100483.47;5012726;28;20037;-54
2022/04/05 04:52:03;;;;;;;4.03;1.52;;;;;;;19.80;47.22;100472.91;5013019;28;20408;-54
2022/04/05 04:54:29;;;;;;;2.92;1.27;;;;;;;19.81;47.40;100484.34;5013145;28;20022;-54
2022/04/05 04:57:03;;;;;;;3.28;1.20;;;;;;;19.79;47.45;100487.13;5012086;28;20429;-54
2022/04/05 04:59:29;;;;;;;5.55;1.63;;;;;;;19.78;47.48;100482.81;5012951;28;20029;-54
2022/04/05 05:01:54;;;;;;;4.50;1.30;;;;;;;19.77;47.28;100489.06;5012886;28;20037;-54
2022/04/05 05:04:19;;;;;;;4.50;1.53;;;;;;;19.78;47.19;100490.75;5012108;28;20030;-56
2022/04/05 05:06:44;;;;;;;3.88;1.40;;;;;;;19.78;47.54;100489.91;5013069;28;20326;-53
2022/04/05 05:09:10;;;;;;;3.70;1.02;;;;;;;19.77;47.47;100485.59;5012683;28;20026;-54
2022/04/05 05:11:36;;;;;;;3.85;1.20;;;;;;;19.75;47.25;100488.34;5012002;28;20401;-54
2022/04/05 05:14:01;;;;;;;5.85;1.27;;;;;;;19.77;47.29;100481.13;5012652;28;20071;-55
2022/04/05 05:16:26;;;;;;;3.57;1.20;;;;;;;19.78;47.32;100490.75;5012687;28;20128;-54
2022/04/05 05:18:51;;;;;;;4.07;1.00;;;;;;;19.80;47.20;100487.94;5011842;28;20018;-52
2022/04/05 05:21:19;;;;;;;3.33;1.10;;;;;;;19.81;47.31;100485.16;5012971;28;20033;-53
2022/04/05 05:23:46;;;;;;;3.63;1.10;;;;;;;19.82;47.38;100493.91;5015800;28;20092;-53
2022/04/05 05:26:12;;;;;;;3.72;1.10;;;;;;;19.83;47.11;100491.13;5015866;28;20057;-54
2022/04/05 05:28:38;;;;;;;3.70;1.30;;;;;;;19.85;47.38;100496.28;5016705;28;20021;-54
2022/04/05 05:31:03;;;;;;;3.37;1.00;;;;;;;19.87;47.33;100495.16;5016345;28;20037;-54
2022/04/05 05:33:28;;;;;;;2.37;0.90;;;;;;;19.88;47.35;100498.63;5016139;28;20275;-55
2022/04/05 05:35:54;;;;;;;3.97;1.10;;;;;;;19.90;47.27;100499.31;5016422;28;20628;-51
2022/04/05 05:38:19;;;;;;;3.40;1.02;;;;;;;19.90;47.25;100500.16;5016624;28;20097;-53
2022/04/05 05:40:44;;;;;;;3.40;1.00;;;;;;;19.91;47.13;100496.53;5015929;28;20068;-53
2022/04/05 05:43:10;;;;;;;2.63;0.98;;;;;;;19.93;47.31;100504.31;5016078;28;20022;-53
2022/04/05 05:45:36;;;;;;;3.67;0.95;;;;;;;19.94;47.25;100504.16;5016578;28;20034;-53
2022/04/05 05:48:03;;;;;;;3.28;1.20;;;;;;;19.97;47.43;100502.25;5015689;28;20070;-53
2022/04/05 05:50:29;;;;;;;2.90;0.95;;;;;;;19.98;47.40;100503.88;5016236;28;20032;-52
2022/04/05 05:52:56;;;;;;;1.98;0.90;;;;;;;19.98;47.34;100512.69;5015111;28;20025;-53
2022/04/05 05:55:22;;;;;;;3.10;1.05;;;;;;;20.01;47.07;100516.81;5016144;28;20034;-54
2022/04/05 05:57:48;;;;;;;4.13;1.05;;;;;;;20.02;47.28;100510.56;5016017;28;20025;-50
2022/04/05 06:00:38;;;;;;;3.38;0.90;;;;;;;20.04;46.92;100517.34;5015606;28;20050;-54
2022/04/05 06:03:04;;;;;;;3.45;1.10;;;;;;;20.09;47.23;100524.84;5017779;28;20038;-54
2022/04/05 06:05:30;;;;;;;2.10;1.00;;;;;;;20.11;47.06;100517.63;5016394;28;20452;-50
2022/04/05 06:07:56;;;;;;;3.33;1.23;;;;;;;20.14;47.24;100527.94;5014903;28;20478;-54
2022/04/05 06:10:22;;;;;;;4.03;1.20;;;;;;;20.14;47.43;100522.63;5015799;28;20107;-56
2022/04/05 06:12:49;;;;;;;3.13;1.00;;;;;;;20.15;47.47;100526.09;5015866;28;20057;-53
2022/04/05 06:15:15;;;;;;;4.28;1.20;;;;;;;20.16;47.39;100525.97;5015039;28;20032;-54
2022/04/05 06:17:43;;;;;;;3.58;1.10;;;;;;;20.20;47.56;100522.06;5015933;28;20474;-51
2022/04/05 06:20:10;;;;;;;5.03;1.20;;;;;;;20.21;47.54;100528.16;5015506;28;20044;-54
2022/04/05 06:22:47;;;;;;;3.95;1.05;;;;;;;20.21;47.36;100525.53;5014971;28;20493;-53
2022/04/05 06:25:15;;;;;;;3.95;1.02;;;;;;;20.24;47.54;100525.25;5015860;28;20116;-51
2022/04/05 06:27:41;;;;;;;4.40;1.20;;;;;;;20.24;47.56;100530.53;5015759;28;20145;-52
2022/04/05 06:30:08;;;;;;;5.68;1.30;;;;;;;20.22;47.77;100532.47;5014899;28;20030;-54
2022/04/05 06:32:34;;;;;;;4.93;1.20;;;;;;;20.23;47.92;100537.59;5015678;28;20478;-53
2022/04/05 06:35:00;;;;;;;4.10;1.30;;;;;;;20.23;48.01;100540.25;5014011;28;20045;-56
2022/04/05 06:37:25;;;;;;;3.70;1.00;;;;;;;20.24;47.53;100541.94;5015441;28;20028;-54
2022/04/05 06:40:03;;;;;;;3.47;1.00;;;;;;;20.25;47.98;100546.25;5015552;28;20018;-55
2022/04/05 06:42:31;;;;;;;3.90;1.30;;;;;;;20.29;48.67;100546.78;5014941;28;20759;-55
2022/04/05 06:44:56;;;;;;;5.07;1.50;;;;;;;20.30;48.57;100544.00;5015252;28;20494;-54
2022/04/05 06:47:22;;;;;;;4.07;1.00;;;;;;;20.36;48.74;100547.88;5019341;28;20099;-51
2022/04/05 06:49:47;;;;;;;3.30;1.02;;;;;;;20.40;48.75;100549.25;5014495;28;20064;-56
2022/04/05 06:52:14;;;;;;;5.07;1.40;;;;;;;20.46;48.61;100550.50;5014984;28;20025;-53
2022/04/05 06:54:39;;;;;;;3.78;0.82;;;;;;;20.55;48.75;100543.47;5015215;28;20126;-55
2022/04/05 06:57:05;;;;;;;5.97;1.30;;;;;;;20.65;48.39;100552.22;5014327;28;20442;-50
2022/04/05 06:59:30;;;;;;;3.13;1.02;;;;;;;20.74;48.38;100553.13;5015147;28;20426;-51
2022/04/05 07:01:56;;;;;;;4.10;1.17;;;;;;;20.81;47.97;100560.34;5014800;28;20030;-49
2022/04/05 07:04:21;;;;;;;3.08;1.10;;;;;;;20.84;47.68;100554.75;5014022;28;20049;-52
2022/04/05 07:06:52;;;;;;;4.10;1.20;;;;;;;20.91;47.92;100560.28;5015291;28;20045;-51
2022/04/05 07:09:17;;;;;;;3.95;1.05;;;;;;;20.94;47.75;100557.31;5014928;28;20340;-49
2022/04/05 07:11:43;;;;;;;4.87;1.23;;;;;;;20.98;47.76;100557.84;5014078;28;20073;-54
2022/04/05 07:14:08;;;;;;;3.15;0.98;;;;;;;20.99;47.87;100563.00;5014589;28;20097;-51
2022/04/05 07:16:36;;;;;;;2.70;1.00;;;;;;;21.02;47.82;100560.06;5014817;28;20052;-51
2022/04/05 07:19:01;;;;;;;3.13;1.23;;;;;;;21.04;47.86;100567.03;5013666;28;20627;-50
2022/04/05 07:21:29;;;;;;;2.93;0.93;;;;;;;21.05;47.99;100560.75;5014811;28;20034;-51
2022/04/05 07:23:55;;;;;;;3.20;1.17;;;;;;;21.06;47.88;100562.41;5014364;28;20379;-51
2022/04/05 07:26:21;;;;;;;4.07;1.15;;;;;;;21.05;47.90;100564.22;5014074;28;20048;-52
2022/04/05 07:28:48;;;;;;;4.43;1.10;;;;;;;21.01;48.11;100562.84;5014736;28;20018;-53
2022/04/05 07:31:13;;;;;;;3.78;1.25;;;;;;;20.98;48.23;100558.72;5013856;28;20034;-55
2022/04/05 07:33:39;;;;;;;3.60;1.10;;;;;;;20.99;48.06;100557.69;5014563;28;20036;-55
2022/04/05 07:36:04;;;;;;;5.10;1.40;;;;;;;21.02;48.20;100554.75;5014467;28;20116;-55
2022/04/05 07:38:29;;;;;;;5.13;1.10;;;;;;;21.05;48.16;100552.81;5013900;28;20272;-52
2022/04/05 07:40:57;;;;;;;3.33;1.00;;;;;;;21.05;48.00;100556.28;5014322;28;20819;-52
2022/04/05 07:43:25;;;;;;;3.92;1.20;;;;;;;21.08;48.11;100547.19;5014498;28;20271;-52
2022/04/05 07:45:52;;;;;;;3.50;1.15;;;;;;;21.07;47.97;100554.31;5012510;28;20389;-53
2022/04/05 07:48:21;;;;;;;3.38;1.13;;;;;;;21.05;48.04;100550.16;5014398;28;20029;-54
2022/04/05 07:50:48;;;;;;;3.92;1.15;;;;;;;21.01;47.85;100557.56;5014215;28;20034;-54
2022/04/05 07:53:13;;;;;;;4.78;1.40;;;;;;;20.97;47.97;100557.03;5013620;28;20022;-56
2022/04/05 07:55:38;;;;;;;4.35;1.20;;;;;;;20.96;47.95;100559.81;5014207;28;20382;-54
2022/04/05 07:58:04;;;;;;;3.35;1.30;;;;;;;20.92;47.90;100563.75;5013776;28;20466;-54
2022/04/05 08:00:29;;;;;;;4.97;1.20;;;;;;;20.88;47.89;100547.31;5013343;28;20041;-55
2022/04/05 08:02:55;;;;;;;3.53;1.20;;;;;;;20.88;47.92;100555.28;5013663;28;20017;-53
2022/04/05 08:05:20;;;;;;;3.55;1.08;;;;;;;20.86;47.72;100556.44;5014224;28;20132;-52
2022/04/05 08:07:49;;;;;;;3.88;1.27;;;;;;;20.83;47.84;100553.06;5013374;28;20052;-53
2022/04/05 08:10:14;;;;;;;3.80;1.40;;;;;;;20.82;47.69;100558.50;5013955;28;20076;-53
2022/04/05 08:12:42;;;;;;;5.72;1.17;;;;;;;20.80;47.33;100558.66;5013572;28;20120;-51
2022/04/05 08:15:08;;;;;;;5.00;1.20;;;;;;;20.80;47.44;100558.66;5012574;28;20566;-49
2022/04/05 08:17:34;;;;;;;3.83;1.35;;;;;;;20.79;47.46;100558.81;5013609;28;20022;-50
2022/04/05 08:19:59;;;;;;;5.72;1.20;;;;;;;20.79;47.39;100553.50;5013557;28;20439;-53
2022/04/05 08:22:27;;;;;;;3.33;1.20;;;;;;;20.78;47.20;100562.47;5013004;28;20557;-50
2022/04/05 08:24:52;;;;;;;3.53;1.25;;;;;;;20.78;47.39;100565.09;5013110;28;20477;-49
2022/04/05 08:27:20;;;;;;;2.55;1.00;;;;;;;20.76;47.50;100567.06;5013577;28;20044;-50
2022/04/05 08:29:45;;;;;;;5.32;1.33;;;;;;;20.76;47.14;100562.59;5012624;28;20026;-53
2022/04/05 08:32:14;;;;;;;2.38;0.95;;;;;;;20.75;47.23;100568.88;5013026;28;20054;-55
2022/04/05 08:34:41;;;;;;;5.57;1.52;;;;;;;20.72;47.40;100571.00;5012857;28;20026;-53
2022/04/05 08:37:10;;;;;;;3.78;1.02;;;;;;;20.72;47.58;100573.66;5013180;28;20022;-52
2022/04/05 08:39:38;;;;;;;3.13;1.13;;;;;;;20.70;47.61;100575.63;5013247;28;20029;-54
2022/04/05 08:42:05;;;;;;;2.40;0.90;;;;;;;20.69;47.38;100563.34;5012235;28;20021;-53
2022/04/05 08:44:31;;;;;;;4.07;1.02;;;;;;;20.67;47.39;100578.56;5013090;28;20037;-52
2022/04/05 08:47:03;;;;;;;3.25;1.10;;;;;;;20.67;47.30;100578.56;5013052;28;20377;-53
2022/04/05 08:49:29;;;;;;;3.63;1.20;;;;;;;20.65;47.27;100576.88;5012804;28;20056;-53
2022/04/05 08:51:55;;;;;;;2.92;1.13;;;;;;;20.64;47.33;100579.69;5012839;28;20042;-52
2022/04/05 08:54:20;;;;;;;4.10;1.30;;;;;;;20.64;47.49;100582.31;5013229;28;20363;-53
2022/04/05 08:56:47;;;;;;;3.33;1.13;;;;;;;20.63;47.37;100578.81;5012321;28;20037;-52
2022/04/05 08:59:16;;;;;;;4.88;1.45;;;;;;;20.63;47.37;100584.13;5012790;28;20029;-54
2022/04/05 09:01:41;;;;;;;4.18;0.98;;;;;;;20.63;47.33;100581.47;5013270;28;20018;-52
2022/04/05 09:04:06;;;;;;;3.10;1.08;;;;;;;20.64;47.42;100579.69;5011952;28;20088;-52
2022/04/05 09:06:34;;;;;;;2.75;1.23;;;;;;;20.63;47.69;100578.81;5013113;28;20109;-51
2022/04/05 09:09:09;;;;;;;3.30;1.00;;;;;;;20.63;47.38;100577.97;5012796;28;20072;-49
2022/04/05 09:11:35;;;;;;;3.25;1.25;;;;;;;20.62;47.21;100579.78;5011870;28;20036;-50
2022/04/05 09:14:02;;;;;;;4.15;1.10;;;;;;;20.61;47.44;100588.69;5012602;28;20030;-51
2022/04/05 09:16:33;;;;;;;3.58;1.20;;;;;;;20.61;47.56;100583.41;5012727;28;20026;-50
2022/04/05 09:19:12;;;;;;;2.95;1.17;;;;;;;20.60;47.42;100580.91;5011866;28;20076;-49
2022/04/05 09:21:57;;;;;;;3.42;1.10;;;;;;;20.60;47.52;100592.34;5012784;28;20408;-52
2022/04/05 09:24:33;;;;;;;3.45;1.02;;;;;;;20.60;47.40;100586.19;5012060;28;20026;-53
2022/04/05 09:26:59;;;;;;;2.90;0.90;;;;;;;20.58;47.34;100591.63;5012454;28;20481;-53
2022/04/05 09:29:40;;;;;;;3.75;1.38;;;;;;;20.57;47.64;100590.00;5012771;28;20041;-52
2022/04/05 09:32:06;;;;;;;4.57;1.08;;;;;;;20.57;47.73;100599.72;5011674;28;20112;-52
2022/04/05 09:34:31;;;;;;;3.38;1.20;;;;;;;20.58;47.55;100601.41;5012573;28;20113;-50
2022/04/05 09:36:57;;;;;;;4.43;1.02;;;;;;;20.58;47.80;100609.34;5012494;28;20034;-52
2022/04/05 09:39:23;;;;;;;4.50;1.20;;;;;;;20.57;47.65;100605.88;5011973;28;20050;-52
2022/04/05 09:42:02;;;;;;;4.75;1.00;;;;;;;20.57;47.55;100602.38;5012273;28;20544;-52
2022/04/05 09:44:32;;;;;;;4.20;0.95;;;;;;;20.55;47.36;100599.88;5012546;28;20030;-49
2022/04/05 09:47:09;;;;;;;4.07;0.90;;;;;;;20.54;47.60;100608.00;5011389;28;20024;-53
2022/04/05 09:49:40;;;;;;;2.92;1.08;;;;;;;20.55;47.35;100607.00;5012821;28;20105;-50
2022/04/05 09:52:34;;;;;;;4.18;1.20;;;;;;;20.57;47.62;100607.66;5011600;28;20045;-50
2022/04/05 09:55:14;;;;;;;3.67;1.10;;;;;;;20.56;47.80;100603.38;5012390;28;20030;-49
2022/04/05 09:57:41;;;;;;;3.65;1.05;;;;;;;20.56;47.66;100606.03;5012457;28;20030;-50
2022/04/05 10:00:19;;;;;;;2.15;0.90;;;;;;;20.55;47.59;100605.16;5011657;28;20033;-49
2022/04/05 10:03:05;;;;;;;3.78;1.00;;;;;;;20.55;47.91;100604.34;5012675;28;20028;-49
2022/04/05 10:05:32;;;;;;;3.25;0.88;;;;;;;20.56;47.84;100611.31;5012462;28;20470;-49
2022/04/05 10:07:59;;;;;;;2.72;0.95;;;;;;;20.55;48.01;100610.47;5011489;28;20076;-48
2022/04/05 10:10:24;;;;;;;1.90;0.98;;;;;;;20.54;47.89;100611.47;5015920;28;20017;-56
2022/04/05 10:12:50;;;;;;;3.03;1.02;;;;;;;20.56;47.96;100604.19;5015299;28;20061;-50
2022/04/05 10:15:26;;;;;;;;;;;;;;;;;;;;;
2022/04/05 10:17:52;;;;;;;5.93;1.55;;;;;;;20.56;47.68;100606.84;5015375;28;20038;-52
2022/04/05 10:20:18;;;;;;;2.65;0.80;;;;;;;20.59;47.81;100605.72;5015022;28;20026;-52
2022/04/05 10:22:45;;;;;;;5.68;1.30;;;;;;;20.64;48.21;100604.31;5016024;28;20104;-53
2022/04/05 10:25:11;;;;;;;4.72;1.20;;;;;;;20.69;48.40;100609.19;5015589;28;20053;-54
2022/04/05 10:27:36;;;;;;;3.60;0.93;;;;;;;20.72;48.26;100608.88;5015083;28;20449;-55
2022/04/05 10:30:07;;;;;;;2.45;0.90;;;;;;;20.77;48.11;100614.56;5015375;28;20473;-54
2022/04/05 10:32:51;;;;;;;3.30;1.23;;;;;;;20.78;48.34;100610.97;5016946;28;20094;-55
2022/04/05 10:35:24;;;;;;;3.90;1.10;;;;;;;20.80;48.40;100608.16;5016285;28;20034;-55
2022/04/05 10:38:10;;;;;;;2.55;0.77;;;;;;;20.81;48.61;100608.00;5022731;28;20025;-54
2022/04/05 10:40:35;;;;;;;1.95;0.90;;;;;;;20.83;48.21;100602.56;5015794;28;20033;-54
2022/04/05 10:43:16;;;;;;;3.55;1.00;;;;;;;20.86;48.44;100606.75;5014583;28;20026;-54
2022/04/05 10:45:45;;;;;;;6.05;1.25;;;;;;;20.88;48.37;100605.59;5015529;28;20018;-55
2022/04/05 10:48:28;;;;;;;3.92;1.10;;;;;;;20.88;48.61;100604.78;5014365;28;20113;-55
2022/04/05 10:50:59;;;;;;;3.30;0.85;;;;;;;20.90;48.33;100610.75;5014824;28;20532;-55
2022/04/05 10:53:32;;;;;;;4.30;1.10;;;;;;;20.91;47.87;100597.34;5015074;28;20022;-54
2022/04/05 10:56:03;;;;;;;5.05;1.08;;;;;;;20.92;48.20;100601.69;5014179;28;20437;-55
2022/04/05 10:58:33;;;;;;;5.93;1.55;;;;;;;20.96;48.29;100596.91;5015231;28;20026;-52
2022/04/05 11:01:18;;;;;;;3.08;1.02;;;;;;;21.02;47.98;100601.63;5014673;28;20466;-51
2022/04/05 11:04:16;;;;;;;3.25;1.08;;;;;;;21.05;47.85;100598.66;5014532;28;20026;-54
2022/04/05 11:07:06;;;;;;;3.63;1.00;;;;;;;21.09;47.74;100600.03;5015006;28;20045;-51
2022/04/05 11:09:41;;;;;;;2.88;1.05;;;;;;;21.12;47.67;100597.06;5014216;28;20036;-54
2022/04/05 11:12:28;;;;;;;3.75;1.05;;;;;;;21.15;47.59;100602.06;5014688;28;20140;-55
2022/04/05 11:14:56;;;;;;;2.58;1.05;;;;;;;21.16;47.33;100598.44;5014612;28;20033;-57
2022/04/05 11:17:25;;;;;;;3.83;1.15;;;;;;;21.15;47.70;100602.06;5014180;28;20029;-49
2022/04/05 11:19:53;;;;;;;3.33;0.95;;;;;;;21.14;47.68;100594.28;5014192;28;20026;-51
2022/04/05 11:22:22;;;;;;;4.70;1.05;;;;;;;21.11;47.52;100600.72;5014594;28;20022;-52
2022/04/05 11:25:05;;;;;;;3.30;1.00;;;;;;;21.10;47.53;100600.88;5013599;28;20026;-49
2022/04/05 11:27:48;;;;;;;4.10;1.00;;;;;;;21.08;47.37;100597.53;5014467;28;20049;-53
2022/04/05 11:30:23;;;;;;;2.75;0.90;;;;;;;21.07;47.59;100595.88;5014342;28;20030;-50